createdAt,value
2024-05-09T00:01:43.232Z,29.5
2024-05-09T00:02:45.882Z,29.5
2024-05-09T00:03:49.021Z,29.5
2024-05-09T00:04:52.358Z,29.5
2024-05-09T00:05:55.200Z,29.5
2024-05-09T00:06:57.795Z,29.6
2024-05-09T00:08:00.442Z,29.6
2024-05-09T00:09:03.031Z,29.6
2024-05-09T00:11:11.036Z,29.6
2024-05-09T00:12:13.985Z,29.6
2024-05-09T00:13:16.750Z,29.6
2024-05-09T00:14:19.365Z,29.6
2024-05-09T00:15:21.989Z,29.6
2024-05-09T00:16:24.543Z,29.6
2024-05-09T00:17:27.545Z,29.6
2024-05-09T00:18:30.824Z,29.6
2024-05-09T00:19:33.900Z,29.6
2024-05-09T00:21:41.758Z,29.6
2024-05-09T00:22:44.324Z,29.6
2024-05-09T00:23:46.866Z,29.6
2024-05-09T00:24:49.277Z,29.6
2024-05-09T00:25:51.851Z,29.6
2024-05-09T00:26:54.495Z,29.6
2024-05-09T00:27:56.949Z,29.6
2024-05-09T00:28:59.512Z,29.6
2024-05-09T00:30:04.392Z,29.6
2024-05-09T00:31:10.964Z,29.6
2024-05-09T00:32:13.882Z,29.6
2024-05-09T00:33:17.647Z,29.6
2024-05-09T00:34:21.416Z,29.6
2024-05-09T00:35:24.754Z,29.6
2024-05-09T00:36:27.704Z,29.6
2024-05-09T00:37:30.133Z,29.6
2024-05-09T00:38:32.986Z,29.6
2024-05-09T00:39:35.796Z,29.6
2024-05-09T00:41:43.386Z,29.6
2024-05-09T00:42:45.804Z,29.6
2024-05-09T00:43:48.530Z,29.6
2024-05-09T00:44:51.160Z,29.6
2024-05-09T00:45:53.600Z,29.6
2024-05-09T00:46:56.289Z,29.6
2024-05-09T00:47:59.562Z,29.6
2024-05-09T00:49:03.535Z,29.6
2024-05-09T00:51:11.913Z,29.6
2024-05-09T00:52:14.497Z,29.6
2024-05-09T00:53:17.192Z,29.6
2024-05-09T00:54:19.829Z,29.6
2024-05-09T00:55:22.224Z,29.6
2024-05-09T00:56:24.909Z,29.6
2024-05-09T00:57:27.692Z,29.6
2024-05-09T00:58:30.126Z,29.6
2024-05-09T00:59:32.907Z,29.6
2024-05-09T01:01:41.089Z,29.6
2024-05-09T01:02:44.114Z,29.6
2024-05-09T01:04:52.416Z,29.6
2024-05-09T01:05:55.718Z,29.6
2024-05-09T01:06:58.489Z,29.6
2024-05-09T01:08:01.258Z,29.6
2024-05-09T01:09:04.223Z,29.6
2024-05-09T01:11:12.436Z,29.6
2024-05-09T01:12:15.600Z,29.6
2024-05-09T01:13:18.536Z,29.6
2024-05-09T01:14:21.146Z,29.6
2024-05-09T01:15:23.627Z,29.6
2024-05-09T01:16:25.900Z,29.6
2024-05-09T01:17:28.765Z,29.6
2024-05-09T01:18:32.308Z,29.6
2024-05-09T01:19:35.336Z,29.6
2024-05-09T01:21:43.291Z,29.6
2024-05-09T01:22:45.806Z,29.6
2024-05-09T01:23:48.362Z,29.6
2024-05-09T01:24:50.595Z,29.6
2024-05-09T01:25:53.011Z,29.6
2024-05-09T01:26:55.440Z,29.6
2024-05-09T01:27:57.890Z,29.6
2024-05-09T01:29:00.511Z,29.6
2024-05-09T01:31:08.361Z,29.6
2024-05-09T01:32:11.316Z,29.6
2024-05-09T01:33:15.413Z,29.6
2024-05-09T01:34:18.421Z,29.6
2024-05-09T01:35:21.264Z,29.6
2024-05-09T01:36:24.140Z,29.6
2024-05-09T01:37:26.550Z,29.6
2024-05-09T01:38:29.413Z,29.6
2024-05-09T01:39:32.261Z,29.6
2024-05-09T01:41:39.890Z,29.6
2024-05-09T01:42:42.265Z,29.6
2024-05-09T01:43:44.647Z,29.6
2024-05-09T01:44:47.154Z,29.6
2024-05-09T01:45:49.650Z,29.6
2024-05-09T01:46:52.175Z,29.6
2024-05-09T01:47:55.577Z,29.6
2024-05-09T01:48:59.055Z,29.6
2024-05-09T01:50:02.628Z,29.6
2024-05-09T01:51:12.263Z,29.6
2024-05-09T01:52:14.927Z,29.6
2024-05-09T01:53:17.569Z,29.6
2024-05-09T01:54:20.257Z,29.6
2024-05-09T01:55:22.705Z,29.6
2024-05-09T01:56:25.406Z,29.6
2024-05-09T01:57:28.009Z,29.6
2024-05-09T01:58:30.491Z,29.6
2024-05-09T01:59:33.014Z,29.6
2024-05-09T02:02:46.327Z,29.6
2024-05-09T02:03:50.514Z,29.6
2024-05-09T02:04:54.198Z,29.6
2024-05-09T02:05:57.016Z,29.6
2024-05-09T02:06:59.565Z,29.6
2024-05-09T02:08:02.424Z,29.6
2024-05-09T02:09:05.132Z,29.6
2024-05-09T02:11:13.448Z,29.6
2024-05-09T02:12:17.020Z,29.6
2024-05-09T02:13:20.179Z,29.6
2024-05-09T02:14:22.787Z,29.5
2024-05-09T02:15:25.274Z,29.6
2024-05-09T02:16:27.706Z,29.5
2024-05-09T02:17:30.879Z,29.5
2024-05-09T02:18:34.368Z,29.5
2024-05-09T02:19:37.288Z,29.6
2024-05-09T02:20:40.460Z,29.5
2024-05-09T02:21:44.730Z,29.5
2024-05-09T02:22:47.319Z,29.6
2024-05-09T02:23:49.900Z,29.6
2024-05-09T02:24:52.320Z,29.6
2024-05-09T02:25:54.975Z,29.6
2024-05-09T02:26:57.668Z,29.6
2024-05-09T02:28:00.423Z,29.6
2024-05-09T02:29:03.008Z,29.6
2024-05-09T02:31:10.708Z,29.5
2024-05-09T02:32:13.621Z,29.5
2024-05-09T02:33:16.784Z,29.5
2024-05-09T02:34:19.855Z,29.5
2024-05-09T02:35:22.836Z,29.5
2024-05-09T02:36:25.603Z,29.5
2024-05-09T02:37:27.846Z,29.5
2024-05-09T02:38:30.509Z,29.5
2024-05-09T02:39:33.172Z,29.5
2024-05-09T02:41:40.647Z,29.5
2024-05-09T02:42:43.155Z,29.5
2024-05-09T02:43:45.529Z,29.5
2024-05-09T02:44:47.859Z,29.5
2024-05-09T02:45:50.314Z,29.5
2024-05-09T02:46:52.851Z,29.5
2024-05-09T02:47:56.246Z,29.5
2024-05-09T02:49:00.290Z,29.5
2024-05-09T02:50:05.949Z,29.5
2024-05-09T02:51:14.968Z,29.6
2024-05-09T02:52:17.542Z,29.6
2024-05-09T02:53:19.910Z,29.6
2024-05-09T02:54:22.431Z,29.6
2024-05-09T02:55:24.656Z,29.6
2024-05-09T02:56:27.255Z,29.6
2024-05-09T02:57:30.004Z,29.6
2024-05-09T02:58:32.464Z,29.6
2024-05-09T02:59:34.883Z,29.6
2024-05-09T03:01:42.920Z,29.6
2024-05-09T03:02:45.820Z,29.6
2024-05-09T03:03:49.227Z,29.6
2024-05-09T03:04:52.511Z,29.6
2024-05-09T03:05:55.372Z,29.6
2024-05-09T03:06:57.848Z,29.6
2024-05-09T03:08:00.542Z,29.6
2024-05-09T03:09:03.381Z,29.6
2024-05-09T03:11:11.415Z,29.6
2024-05-09T03:12:14.582Z,29.6
2024-05-09T03:13:17.542Z,29.6
2024-05-09T03:14:20.191Z,29.5
2024-05-09T03:15:22.815Z,29.5
2024-05-09T03:16:25.240Z,29.5
2024-05-09T03:17:28.233Z,29.5
2024-05-09T03:18:31.599Z,29.5
2024-05-09T03:19:34.430Z,29.5
2024-05-09T03:20:38.374Z,29.5
2024-05-09T03:21:41.948Z,29.5
2024-05-09T03:22:44.649Z,29.5
2024-05-09T03:23:47.595Z,29.5
2024-05-09T03:24:50.025Z,29.5
2024-05-09T03:25:52.631Z,29.5
2024-05-09T03:26:55.190Z,29.6
2024-05-09T03:27:57.762Z,29.6
2024-05-09T03:29:00.333Z,29.6
2024-05-09T03:31:08.577Z,29.6
2024-05-09T03:32:11.366Z,29.5
2024-05-09T03:33:17.226Z,29.5
2024-05-09T03:34:23.390Z,29.5
2024-05-09T03:35:26.395Z,29.5
2024-05-09T03:36:29.157Z,29.5
2024-05-09T03:37:31.555Z,29.5
2024-05-09T03:38:34.334Z,29.5
2024-05-09T03:39:37.205Z,29.5
2024-05-09T03:40:39.683Z,29.5
2024-05-09T03:41:42.185Z,29.5
2024-05-09T03:42:44.605Z,29.5
2024-05-09T03:43:47.221Z,29.5
2024-05-09T03:44:49.732Z,29.6
2024-05-09T03:45:52.192Z,29.6
2024-05-09T03:46:54.721Z,29.6
2024-05-09T03:47:58.346Z,29.6
2024-05-09T03:49:01.448Z,29.6
2024-05-09T03:51:09.977Z,29.6
2024-05-09T03:52:12.527Z,29.6
2024-05-09T03:53:15.516Z,29.6
2024-05-09T03:54:18.343Z,29.6
2024-05-09T03:55:20.796Z,29.6
2024-05-09T03:56:23.444Z,29.6
2024-05-09T03:57:26.103Z,29.6
2024-05-09T03:58:28.546Z,29.6
2024-05-09T03:59:31.284Z,29.6
2024-05-09T04:01:39.562Z,29.6
2024-05-09T04:02:42.281Z,29.6
2024-05-09T04:03:45.734Z,29.6
2024-05-09T04:04:49.088Z,29.6
2024-05-09T04:05:52.212Z,29.6
2024-05-09T04:06:54.729Z,29.6
2024-05-09T04:07:57.351Z,29.6
2024-05-09T04:09:00.102Z,29.6
2024-05-09T04:10:03.973Z,29.6
2024-05-09T04:11:10.988Z,29.6
2024-05-09T04:12:14.285Z,29.6
2024-05-09T04:13:17.079Z,29.6
2024-05-09T04:14:19.586Z,29.6
2024-05-09T04:15:22.384Z,29.6
2024-05-09T04:16:24.808Z,29.6
2024-05-09T04:17:27.888Z,29.6
2024-05-09T04:18:31.552Z,29.6
2024-05-09T04:19:34.708Z,29.6
2024-05-09T04:21:42.452Z,29.6
2024-05-09T04:22:45.062Z,29.6
2024-05-09T04:23:47.929Z,29.6
2024-05-09T04:24:50.642Z,29.6
2024-05-09T04:25:53.266Z,29.6
2024-05-09T04:26:55.853Z,29.6
2024-05-09T04:27:58.168Z,29.6
2024-05-09T04:29:00.759Z,29.6
2024-05-09T04:30:07.831Z,29.6
2024-05-09T04:31:11.265Z,29.6
2024-05-09T04:32:14.070Z,29.5
2024-05-09T04:33:17.440Z,29.5
2024-05-09T04:34:21.141Z,29.5
2024-05-09T04:35:24.535Z,29.6
2024-05-09T04:36:27.402Z,29.6
2024-05-09T04:37:29.779Z,29.6
2024-05-09T04:38:32.491Z,29.6
2024-05-09T04:39:35.312Z,29.6
2024-05-09T04:40:39.201Z,29.6
2024-05-09T04:41:41.952Z,29.6
2024-05-09T04:42:44.360Z,29.6
2024-05-09T04:43:46.687Z,29.6
2024-05-09T04:44:49.225Z,29.6
2024-05-09T04:45:51.723Z,29.6
2024-05-09T04:46:54.259Z,29.6
2024-05-09T04:47:57.637Z,29.6
2024-05-09T04:49:01.641Z,29.6
2024-05-09T04:50:08.745Z,29.6
2024-05-09T04:51:12.201Z,29.6
2024-05-09T04:52:14.602Z,29.6
2024-05-09T04:53:17.997Z,29.6
2024-05-09T04:55:25.958Z,29.6
2024-05-09T04:56:28.639Z,29.6
2024-05-09T04:57:31.384Z,29.6
2024-05-09T04:58:33.401Z,29.6
2024-05-09T04:59:35.780Z,29.6
2024-05-09T05:00:41.927Z,29.6
2024-05-09T05:01:45.391Z,29.5
2024-05-09T05:02:48.627Z,29.5
2024-05-09T05:03:52.095Z,29.5
2024-05-09T05:04:57.998Z,29.5
2024-05-09T05:06:01.199Z,29.5
2024-05-09T05:07:03.975Z,29.5
2024-05-09T05:08:06.836Z,29.5
2024-05-09T05:09:09.347Z,29.5
2024-05-09T05:11:16.996Z,29.5
2024-05-09T05:12:20.148Z,29.5
2024-05-09T05:13:25.487Z,29.5
2024-05-09T05:14:28.279Z,29.5
2024-05-09T05:15:30.914Z,29.5
2024-05-09T05:16:33.344Z,29.5
2024-05-09T05:17:36.642Z,29.5
2024-05-09T05:18:40.056Z,29.5
2024-05-09T05:19:43.083Z,29.5
2024-05-09T05:20:46.552Z,29.5
2024-05-09T05:21:49.407Z,29.5
2024-05-09T05:22:51.988Z,29.5
2024-05-09T05:23:54.439Z,29.5
2024-05-09T05:24:56.658Z,29.5
2024-05-09T05:25:59.098Z,29.5
2024-05-09T05:27:01.720Z,29.5
2024-05-09T05:28:04.153Z,29.5
2024-05-09T05:29:06.753Z,29.5
2024-05-09T05:31:14.707Z,29.5
2024-05-09T05:32:17.929Z,29.5
2024-05-09T05:33:21.731Z,29.5
2024-05-09T05:34:25.623Z,29.5
2024-05-09T05:35:28.570Z,29.5
2024-05-09T05:36:31.383Z,29.5
2024-05-09T05:37:33.833Z,29.5
2024-05-09T05:38:36.407Z,29.5
2024-05-09T05:39:39.016Z,29.5
2024-05-09T05:40:42.089Z,29.5
2024-05-09T05:41:44.462Z,29.5
2024-05-09T05:42:46.879Z,29.5
2024-05-09T05:43:49.557Z,29.5
2024-05-09T05:44:52.411Z,29.5
2024-05-09T05:45:54.843Z,29.5
2024-05-09T05:46:57.423Z,29.5
2024-05-09T05:48:00.835Z,29.5
2024-05-09T05:49:04.235Z,29.5
2024-05-09T05:51:12.678Z,29.5
2024-05-09T05:52:15.586Z,29.4
2024-05-09T05:53:18.230Z,29.4
2024-05-09T05:54:20.670Z,29.4
2024-05-09T05:55:23.139Z,29.4
2024-05-09T05:56:25.737Z,29.4
2024-05-09T05:57:28.414Z,29.4
2024-05-09T05:58:30.817Z,29.4
2024-05-09T05:59:33.690Z,29.4
2024-05-09T06:01:41.557Z,29.4
2024-05-09T06:02:44.503Z,29.4
2024-05-09T06:03:48.186Z,29.4
2024-05-09T06:04:51.681Z,29.4
2024-05-09T06:05:54.737Z,29.4
2024-05-09T06:06:57.277Z,29.4
2024-05-09T06:08:00.090Z,29.5
2024-05-09T06:09:02.972Z,29.5
2024-05-09T06:11:10.720Z,29.5
2024-05-09T06:12:13.912Z,29.5
2024-05-09T06:13:16.899Z,29.5
2024-05-09T06:14:19.532Z,29.5
2024-05-09T06:15:22.159Z,29.5
2024-05-09T06:16:24.609Z,29.5
2024-05-09T06:17:27.559Z,29.5
2024-05-09T06:18:31.516Z,29.5
2024-05-09T06:19:35.098Z,29.5
2024-05-09T06:20:39.842Z,29.5
2024-05-09T06:21:43.574Z,29.5
2024-05-09T06:22:46.191Z,29.5
2024-05-09T06:23:49.001Z,29.5
2024-05-09T06:24:51.511Z,29.5
2024-05-09T06:25:54.061Z,29.5
2024-05-09T06:26:56.712Z,29.5
2024-05-09T06:27:59.170Z,29.5
2024-05-09T06:29:02.032Z,29.5
2024-05-09T06:30:08.115Z,29.5
2024-05-09T06:31:11.788Z,29.5
2024-05-09T06:32:14.839Z,29.5
2024-05-09T06:33:18.590Z,29.5
2024-05-09T06:34:22.336Z,29.5
2024-05-09T06:35:25.531Z,29.5
2024-05-09T06:36:28.116Z,29.5
2024-05-09T06:37:30.588Z,29.5
2024-05-09T06:38:33.200Z,29.5
2024-05-09T06:39:36.176Z,29.5
2024-05-09T06:41:44.030Z,29.5
2024-05-09T06:42:46.529Z,29.6
2024-05-09T06:43:49.131Z,29.6
2024-05-09T06:44:51.699Z,29.6
2024-05-09T06:45:54.172Z,29.6
2024-05-09T06:48:02.506Z,29.6
2024-05-09T06:49:06.297Z,29.6
2024-05-09T06:51:14.741Z,29.6
2024-05-09T06:52:17.041Z,29.6
2024-05-09T06:53:19.675Z,29.6
2024-05-09T06:54:22.319Z,29.6
2024-05-09T06:55:24.764Z,29.6
2024-05-09T06:56:27.404Z,29.6
2024-05-09T06:57:29.915Z,29.6
2024-05-09T06:58:32.384Z,29.6
2024-05-09T06:59:35.005Z,29.6
2024-05-09T07:01:42.843Z,29.6
2024-05-09T07:02:45.792Z,29.6
2024-05-09T07:03:49.045Z,29.6
2024-05-09T07:04:52.302Z,29.6
2024-05-09T07:05:55.847Z,29.6
2024-05-09T07:06:58.445Z,29.6
2024-05-09T07:08:01.188Z,29.6
2024-05-09T07:09:03.764Z,29.6
2024-05-09T07:11:11.734Z,29.6
2024-05-09T07:12:15.057Z,29.6
2024-05-09T07:13:18.070Z,29.6
2024-05-09T07:14:20.325Z,29.6
2024-05-09T07:15:22.972Z,29.6
2024-05-09T07:16:25.601Z,29.6
2024-05-09T07:17:28.697Z,29.6
2024-05-09T07:18:32.451Z,29.6
2024-05-09T07:19:35.793Z,29.7
2024-05-09T07:20:39.294Z,29.7
2024-05-09T07:21:42.031Z,29.6
2024-05-09T07:22:44.573Z,29.6
2024-05-09T07:23:48.686Z,29.6
2024-05-09T07:24:51.502Z,29.6
2024-05-09T07:25:54.121Z,29.6
2024-05-09T07:26:56.748Z,29.6
2024-05-09T07:27:59.056Z,29.6
2024-05-09T07:29:01.676Z,29.6
2024-05-09T07:30:09.319Z,29.6
2024-05-09T07:31:13.924Z,29.6
2024-05-09T07:32:16.811Z,29.6
2024-05-09T07:34:26.795Z,29.6
2024-05-09T07:35:30.629Z,29.6
2024-05-09T07:36:34.144Z,29.6
2024-05-09T07:37:36.610Z,29.6
2024-05-09T07:38:39.775Z,29.6
2024-05-09T07:39:42.302Z,29.6
2024-05-09T07:40:44.836Z,29.6
2024-05-09T07:41:47.875Z,29.6
2024-05-09T07:42:50.500Z,29.6
2024-05-09T07:43:52.881Z,29.6
2024-05-09T07:54:43.757Z,29.6
2024-05-09T07:55:47.135Z,29.6
2024-05-09T07:56:50.889Z,29.6
2024-05-09T07:57:54.142Z,29.6
2024-05-09T07:58:57.156Z,29.6
2024-05-09T07:59:59.386Z,29.6
2024-05-09T08:01:02.186Z,29.6
2024-05-09T08:02:05.739Z,29.6
2024-05-09T08:03:09.186Z,29.6
2024-05-09T08:04:11.973Z,29.6
2024-05-09T08:05:15.173Z,29.6
2024-05-09T08:06:18.314Z,29.6
2024-05-09T08:07:20.918Z,29.6
2024-05-09T08:08:23.597Z,29.6
2024-05-09T08:09:26.076Z,29.6
2024-05-09T08:10:30.480Z,29.6
2024-05-09T08:11:33.379Z,29.6
2024-05-09T08:12:36.089Z,29.6
2024-05-09T08:13:38.614Z,29.6
2024-05-09T08:14:41.034Z,29.6
2024-05-09T08:15:43.686Z,29.6
2024-05-09T08:16:46.151Z,29.6
2024-05-09T08:17:48.912Z,29.6
2024-05-09T08:18:52.059Z,29.6
2024-05-09T08:19:55.007Z,29.6
2024-05-09T08:20:57.418Z,29.6
2024-05-09T08:21:59.836Z,29.6
2024-05-09T08:23:02.669Z,29.6
2024-05-09T08:24:04.925Z,29.6
2024-05-09T08:25:09.294Z,29.6
2024-05-09T08:26:13.974Z,29.6
2024-05-09T08:27:16.441Z,29.6
2024-05-09T08:28:19.327Z,29.6
2024-05-09T08:29:22.251Z,29.6
2024-05-09T08:31:30.295Z,29.6
2024-05-09T08:32:33.086Z,29.6
2024-05-09T08:33:37.309Z,29.6
2024-05-09T08:34:40.789Z,29.6
2024-05-09T08:35:43.324Z,29.6
2024-05-09T08:36:45.753Z,29.6
2024-05-09T08:37:48.511Z,29.5
2024-05-09T08:38:51.000Z,29.5
2024-05-09T08:39:53.643Z,29.5
2024-05-09T08:40:56.245Z,29.5
2024-05-09T08:41:58.687Z,29.5
2024-05-09T08:43:01.348Z,29.5
2024-05-09T08:44:04.301Z,29.5
2024-05-09T08:45:06.753Z,29.5
2024-05-09T08:46:09.317Z,29.5
2024-05-09T08:47:12.095Z,29.5
2024-05-09T08:48:17.322Z,29.6
2024-05-09T08:49:20.732Z,29.6
2024-05-09T08:51:28.762Z,29.6
2024-05-09T08:52:31.342Z,29.6
2024-05-09T08:53:33.874Z,29.6
2024-05-09T08:54:36.494Z,29.5
2024-05-09T08:56:44.036Z,29.6
2024-05-09T08:57:46.537Z,29.6
2024-05-09T08:58:49.086Z,29.6
2024-05-09T08:59:51.526Z,29.6
2024-05-09T09:00:54.420Z,29.6
2024-05-09T09:01:57.409Z,29.6
2024-05-09T09:03:00.079Z,29.6
2024-05-09T09:04:03.133Z,29.6
2024-05-09T09:05:06.685Z,29.6
2024-05-09T09:06:09.643Z,29.6
2024-05-09T09:07:12.159Z,29.6
2024-05-09T09:08:14.660Z,29.6
2024-05-09T09:09:17.105Z,29.6
2024-05-09T09:11:24.785Z,29.6
2024-05-09T09:12:27.477Z,29.5
2024-05-09T09:13:29.863Z,29.5
2024-05-09T09:14:32.328Z,29.5
2024-05-09T09:15:34.902Z,29.5
2024-05-09T09:16:37.528Z,29.5
2024-05-09T09:17:40.330Z,29.5
2024-05-09T09:18:43.598Z,29.5
2024-05-09T09:19:47.084Z,29.5
2024-05-09T09:20:49.629Z,29.5
2024-05-09T09:21:52.293Z,29.5
2024-05-09T09:22:54.894Z,29.5
2024-05-09T09:23:57.336Z,29.5
2024-05-09T09:24:59.890Z,29.5
2024-05-09T09:26:02.777Z,29.5
2024-05-09T09:27:05.213Z,29.5
2024-05-09T09:28:08.438Z,29.5
2024-05-09T09:29:12.052Z,29.5
2024-05-09T09:31:20.080Z,29.5
2024-05-09T09:32:23.026Z,29.5
2024-05-09T09:33:26.124Z,29.5
2024-05-09T09:34:29.570Z,29.5
2024-05-09T09:35:33.011Z,29.5
2024-05-09T09:36:35.604Z,29.5
2024-05-09T09:37:38.110Z,29.5
2024-05-09T09:38:40.544Z,29.5
2024-05-09T09:39:42.923Z,29.5
2024-05-09T09:41:50.646Z,29.4
2024-05-09T09:42:53.304Z,29.5
2024-05-09T09:43:55.665Z,29.5
2024-05-09T09:46:03.424Z,29.5
2024-05-09T09:47:06.694Z,29.5
2024-05-09T09:48:09.564Z,29.5
2024-05-09T09:49:12.901Z,29.5
2024-05-09T09:51:20.853Z,29.5
2024-05-09T09:52:23.659Z,29.5
2024-05-09T09:53:26.287Z,29.5
2024-05-09T09:54:28.890Z,29.5
2024-05-09T09:55:31.523Z,29.5
2024-05-09T09:56:33.973Z,29.5
2024-05-09T09:57:36.468Z,29.6
2024-05-09T09:58:39.073Z,29.6
2024-05-09T09:59:41.574Z,29.6
2024-05-09T10:00:45.044Z,29.6
2024-05-09T10:01:48.938Z,29.6
2024-05-09T10:02:51.915Z,29.6
2024-05-09T10:03:54.980Z,29.6
2024-05-09T10:04:58.144Z,29.6
2024-05-09T10:06:01.143Z,29.6
2024-05-09T10:07:04.099Z,29.6
2024-05-09T10:08:06.598Z,29.6
2024-05-09T10:09:09.004Z,29.6
2024-05-09T10:11:16.631Z,29.6
2024-05-09T10:12:19.129Z,29.6
2024-05-09T10:13:22.343Z,29.6
2024-05-09T10:14:25.118Z,29.6
2024-05-09T10:15:27.955Z,29.6
2024-05-09T10:16:30.880Z,29.6
2024-05-09T10:17:34.096Z,29.6
2024-05-09T10:18:37.705Z,29.6
2024-05-09T10:19:41.049Z,29.6
2024-05-09T10:20:43.710Z,29.6
2024-05-09T10:21:46.593Z,29.6
2024-05-09T10:22:49.369Z,29.6
2024-05-09T10:23:51.853Z,29.6
2024-05-09T10:24:54.567Z,29.6
2024-05-09T10:25:57.253Z,29.6
2024-05-09T10:26:59.686Z,29.6
2024-05-09T10:28:01.866Z,29.6
2024-05-09T10:29:04.631Z,29.6
2024-05-09T10:31:12.708Z,29.6
2024-05-09T10:32:16.077Z,29.6
2024-05-09T10:33:19.056Z,29.6
2024-05-09T10:34:23.111Z,29.6
2024-05-09T10:35:27.000Z,29.6
2024-05-09T10:36:29.672Z,29.6
2024-05-09T10:37:32.496Z,29.6
2024-05-09T10:38:35.118Z,29.6
2024-05-09T10:39:37.706Z,29.6
2024-05-09T10:40:40.802Z,29.6
2024-05-09T10:41:43.577Z,29.5
2024-05-09T10:42:45.883Z,29.5
2024-05-09T10:43:48.644Z,29.5
2024-05-09T10:44:50.858Z,29.5
2024-05-09T10:45:53.527Z,29.5
2024-05-09T10:46:56.324Z,29.5
2024-05-09T10:47:59.400Z,29.5
2024-05-09T10:51:13.006Z,29.5
2024-05-09T10:52:15.914Z,29.5
2024-05-09T10:53:18.668Z,29.5
2024-05-09T10:54:21.126Z,29.5
2024-05-09T10:55:23.972Z,29.5
2024-05-09T10:56:26.768Z,29.5
2024-05-09T10:57:29.270Z,29.5
2024-05-09T10:58:31.833Z,29.5
2024-05-09T10:59:34.255Z,29.5
2024-05-09T11:00:37.974Z,29.5
2024-05-09T11:01:41.228Z,29.5
2024-05-09T11:02:44.800Z,29.5
2024-05-09T11:03:48.468Z,29.5
2024-05-09T11:04:51.979Z,29.5
2024-05-09T11:05:55.192Z,29.5
2024-05-09T11:06:58.174Z,29.5
2024-05-09T11:08:05.958Z,29.5
2024-05-09T11:09:08.236Z,29.6
2024-05-09T11:11:15.943Z,29.6
2024-05-09T11:13:23.778Z,29.6
2024-05-09T11:14:26.210Z,29.6
2024-05-09T11:15:29.008Z,29.6
2024-05-09T11:16:31.751Z,29.6
2024-05-09T11:17:34.612Z,29.6
2024-05-09T11:19:42.796Z,29.6
2024-05-09T11:20:45.746Z,29.6
2024-05-09T11:21:48.375Z,29.6
2024-05-09T11:22:50.980Z,29.6
2024-05-09T11:23:53.651Z,29.6
2024-05-09T11:24:56.422Z,29.6
2024-05-09T11:25:59.220Z,29.6
2024-05-09T11:27:01.760Z,29.6
2024-05-09T11:28:04.540Z,29.6
2024-05-09T11:29:07.225Z,29.6
2024-05-09T11:31:15.079Z,29.6
2024-05-09T11:32:17.761Z,29.6
2024-05-09T11:33:20.698Z,29.6
2024-05-09T11:34:23.351Z,29.6
2024-05-09T11:35:26.089Z,29.6
2024-05-09T11:36:28.374Z,29.6
2024-05-09T11:37:34.084Z,29.6
2024-05-09T11:38:38.513Z,29.6
2024-05-09T11:39:41.142Z,29.6
2024-05-09T11:40:44.136Z,29.6
2024-05-09T11:41:46.565Z,29.6
2024-05-09T11:43:54.187Z,29.6
2024-05-09T11:44:56.607Z,29.6
2024-05-09T11:45:59.331Z,29.6
2024-05-09T11:47:01.997Z,29.6
2024-05-09T11:48:04.771Z,29.6
2024-05-09T11:49:08.379Z,29.6
2024-05-09T11:51:16.921Z,29.6
2024-05-09T11:52:19.492Z,29.6
2024-05-09T11:53:22.077Z,29.6
2024-05-09T11:54:24.655Z,29.6
2024-05-09T11:55:29.530Z,29.6
2024-05-09T11:56:32.156Z,29.6
2024-05-09T11:57:34.759Z,29.6
2024-05-09T11:58:37.366Z,29.6
2024-05-09T11:59:39.775Z,29.6
2024-05-09T12:00:42.551Z,29.6
2024-05-09T12:01:46.105Z,29.6
2024-05-09T12:02:48.922Z,29.6
2024-05-09T12:03:51.799Z,29.6
2024-05-09T12:04:55.377Z,29.6
2024-05-09T12:05:58.522Z,29.6
2024-05-09T12:07:01.547Z,29.6
2024-05-09T12:08:04.156Z,29.6
2024-05-09T12:09:06.600Z,29.6
2024-05-09T12:11:14.622Z,29.6
2024-05-09T12:12:17.318Z,29.6
2024-05-09T12:13:20.415Z,29.6
2024-05-09T12:14:23.322Z,29.6
2024-05-09T12:15:25.794Z,29.6
2024-05-09T12:16:28.847Z,29.6
2024-05-09T12:17:32.201Z,29.6
2024-05-09T12:18:35.347Z,29.6
2024-05-09T12:19:38.545Z,29.6
2024-05-09T12:20:41.237Z,29.6
2024-05-09T12:21:43.869Z,29.6
2024-05-09T12:22:46.283Z,29.6
2024-05-09T12:23:48.736Z,29.6
2024-05-09T12:24:51.345Z,29.6
2024-05-09T12:25:53.950Z,29.6
2024-05-09T12:26:56.402Z,29.6
2024-05-09T12:27:59.067Z,29.6
2024-05-09T12:29:02.226Z,29.6
2024-05-09T12:31:12.746Z,29.6
2024-05-09T12:32:15.342Z,29.6
2024-05-09T12:33:18.552Z,29.7
2024-05-09T12:34:21.585Z,29.7
2024-05-09T12:35:24.225Z,29.7
2024-05-09T12:36:26.656Z,29.7
2024-05-09T12:37:29.165Z,29.6
2024-05-09T12:38:31.609Z,29.6
2024-05-09T12:39:34.087Z,29.6
2024-05-09T12:41:42.090Z,29.6
2024-05-09T12:42:44.685Z,29.6
2024-05-09T12:43:47.262Z,29.6
2024-05-09T12:44:49.499Z,29.6
2024-05-09T12:45:52.119Z,29.6
2024-05-09T12:46:54.900Z,29.6
2024-05-09T12:47:57.781Z,29.6
2024-05-09T12:49:02.127Z,29.6
2024-05-09T12:51:10.760Z,29.6
2024-05-09T12:52:13.315Z,29.7
2024-05-09T12:53:16.171Z,29.7
2024-05-09T12:54:18.583Z,29.7
2024-05-09T12:55:21.266Z,29.7
2024-05-09T12:56:23.566Z,29.7
2024-05-09T12:57:26.058Z,29.7
2024-05-09T12:58:28.825Z,29.7
2024-05-09T12:59:31.275Z,29.7
2024-05-09T13:00:34.962Z,29.7
2024-05-09T13:01:38.410Z,29.7
2024-05-09T13:02:41.668Z,29.7
2024-05-09T13:03:44.920Z,29.7
2024-05-09T13:04:47.793Z,29.7
2024-05-09T13:05:51.135Z,29.7
2024-05-09T13:06:54.210Z,29.7
2024-05-09T13:07:57.491Z,29.7
2024-05-09T13:08:59.767Z,29.7
2024-05-09T13:10:02.484Z,29.7
2024-05-09T13:11:07.258Z,29.7
2024-05-09T13:12:09.892Z,29.8
2024-05-09T13:13:13.237Z,29.8
2024-05-09T13:14:16.569Z,29.8
2024-05-09T13:15:19.008Z,29.8
2024-05-09T13:16:21.925Z,29.8
2024-05-09T13:17:25.516Z,29.8
2024-05-09T13:18:28.185Z,29.8
2024-05-09T13:19:30.955Z,29.7
2024-05-09T13:21:38.895Z,29.7
2024-05-09T13:22:41.338Z,29.8
2024-05-09T13:23:43.594Z,29.8
2024-05-09T13:24:46.112Z,29.8
2024-05-09T13:25:48.590Z,29.7
2024-05-09T13:26:50.945Z,29.8
2024-05-09T13:27:53.581Z,29.7
2024-05-09T13:28:56.608Z,29.7
2024-05-09T13:29:59.062Z,29.7
2024-05-09T13:31:01.746Z,29.7
2024-05-09T13:32:04.465Z,29.7
2024-05-09T13:33:08.443Z,29.7
2024-05-09T13:34:13.974Z,29.7
2024-05-09T13:35:16.796Z,29.7
2024-05-09T13:36:19.272Z,29.6
2024-05-09T13:37:21.742Z,29.6
2024-05-09T13:38:24.196Z,29.6
2024-05-09T13:39:26.631Z,29.6
2024-05-09T13:41:34.195Z,29.6
2024-05-09T13:42:36.886Z,29.6
2024-05-09T13:43:39.509Z,29.6
2024-05-09T13:44:42.043Z,29.6
2024-05-09T13:45:44.714Z,29.6
2024-05-09T13:46:47.492Z,29.6
2024-05-09T13:47:50.401Z,29.6
2024-05-09T13:48:53.763Z,29.6
2024-05-09T13:49:56.562Z,29.6
2024-05-09T13:50:59.211Z,29.6
2024-05-09T13:52:02.145Z,29.5
2024-05-09T13:53:04.609Z,29.5
2024-05-09T13:54:10.565Z,29.5
2024-05-09T13:55:13.625Z,29.5
2024-05-09T13:56:16.990Z,29.5
2024-05-09T13:57:19.399Z,29.5
2024-05-09T13:58:22.231Z,29.5
2024-05-09T13:59:25.439Z,29.5
2024-05-09T14:01:33.721Z,29.5
2024-05-09T14:02:36.905Z,29.5
2024-05-09T14:03:40.719Z,29.5
2024-05-09T14:04:44.271Z,29.5
2024-05-09T14:06:01.862Z,29.5
2024-05-09T14:07:04.584Z,29.5
2024-05-09T14:08:07.091Z,29.5
2024-05-09T14:09:09.498Z,29.5
2024-05-09T14:11:17.294Z,29.5
2024-05-09T14:12:19.825Z,29.5
2024-05-09T14:13:22.534Z,29.5
2024-05-09T14:14:25.032Z,29.5
2024-05-09T14:15:27.518Z,29.5
2024-05-09T14:16:30.400Z,29.5
2024-05-09T14:17:33.492Z,29.5
2024-05-09T14:18:36.870Z,29.5
2024-05-09T14:19:39.525Z,29.5
2024-05-09T14:20:42.753Z,29.5
2024-05-09T14:21:45.533Z,29.5
2024-05-09T14:22:48.069Z,29.6
2024-05-09T14:23:50.482Z,29.6
2024-05-09T14:24:53.101Z,29.6
2024-05-09T14:25:55.810Z,29.6
2024-05-09T14:26:58.549Z,29.6
2024-05-09T14:28:01.469Z,29.6
2024-05-09T14:29:04.111Z,29.6
2024-05-09T14:31:11.873Z,29.6
2024-05-09T14:32:14.483Z,29.6
2024-05-09T14:33:17.422Z,29.6
2024-05-09T14:34:20.820Z,29.6
2024-05-09T14:35:23.770Z,29.6
2024-05-09T14:36:26.016Z,29.6
2024-05-09T14:37:28.423Z,29.6
2024-05-09T14:38:30.837Z,29.6
2024-05-09T14:39:33.148Z,29.6
2024-05-09T14:41:40.906Z,29.6
2024-05-09T14:42:43.428Z,29.6
2024-05-09T14:43:45.788Z,29.6
2024-05-09T14:44:48.234Z,29.6
2024-05-09T14:45:50.995Z,29.7
2024-05-09T14:46:53.754Z,29.7
2024-05-09T14:47:56.780Z,29.7
2024-05-09T14:49:00.147Z,29.7
2024-05-09T14:50:06.732Z,29.6
2024-05-09T14:51:10.569Z,29.6
2024-05-09T14:52:13.324Z,29.6
2024-05-09T14:53:15.890Z,29.6
2024-05-09T14:54:18.345Z,29.6
2024-05-09T14:55:21.072Z,29.6
2024-05-09T14:56:23.666Z,29.6
2024-05-09T14:57:26.338Z,29.6
2024-05-09T14:58:28.774Z,29.6
2024-05-09T14:59:31.291Z,29.6
2024-05-09T15:01:39.245Z,29.6
2024-05-09T15:02:41.926Z,29.6
2024-05-09T15:03:45.023Z,29.6
2024-05-09T15:04:48.604Z,29.6
2024-05-09T15:05:53.387Z,29.6
2024-05-09T15:06:56.496Z,29.6
2024-05-09T15:07:59.148Z,29.6
2024-05-09T15:09:01.790Z,29.6
2024-05-09T15:11:11.682Z,30.2
2024-05-09T15:12:14.128Z,30.3
2024-05-09T15:13:18.252Z,30.3
2024-05-09T15:14:21.292Z,30.3
2024-05-09T15:15:23.718Z,30.3
2024-05-09T15:16:26.630Z,30.3
2024-05-09T15:17:29.620Z,30.4